Gordonsville, Virginia
Current Conditions -  °F | °C
As of 1:15 PM on Tuesday 21 Oct 2014 (Local Time) from KGVE Reporting Station
Scattered Clouds Scattered Clouds  
Wind Chill: 20°   Ceiling: Unl
Heat Index: 20°   Visibility: 7mi
Dew Point:   Wind: 6mph
Humidity: 46%   Direction: 230°SW
Pressure: 29.83"   Gusts: NA
Location:  38.14°N, 78.19°W
Report Text: KGVE 211715Z AUTO 23005KT 7SM SCT049 20/08 A2983 RMK AO1 T02000081
Loading
Personal Weather Stations






























Interactive Weather Map
Tropical Storm Tracking
New forecast layout! Learn more

10-Day Weather Forecast

Advertisements
Track Severe Weather on mobile